sensor_id;sensor_type;location;lat;lon;timestamp;P1;durP1;ratioP1;P2;durP2;ratioP2
12467;SDS011;57850;52.922;6.256;2022-09-28T00:00:17;8.80;;;6.85;;
12467;SDS011;57850;52.922;6.256;2022-09-28T00:02:44;7.68;;;6.78;;
12467;SDS011;57850;52.922;6.256;2022-09-28T00:05:11;8.95;;;6.57;;
12467;SDS011;57850;52.922;6.256;2022-09-28T00:07:39;9.05;;;6.63;;
12467;SDS011;57850;52.922;6.256;2022-09-28T00:10:06;7.22;;;6.38;;
12467;SDS011;57850;52.922;6.256;2022-09-28T00:12:33;10.52;;;7.00;;
12467;SDS011;57850;52.922;6.256;2022-09-28T00:15:00;8.48;;;6.70;;
12467;SDS011;57850;52.922;6.256;2022-09-28T00:17:27;10.93;;;6.55;;
12467;SDS011;57850;52.922;6.256;2022-09-28T00:19:54;7.65;;;6.78;;
12467;SDS011;57850;52.922;6.256;2022-09-28T00:22:22;8.85;;;6.70;;
12467;SDS011;57850;52.922;6.256;2022-09-28T00:24:50;10.63;;;7.00;;
12467;SDS011;57850;52.922;6.256;2022-09-28T00:27:16;8.23;;;6.57;;
12467;SDS011;57850;52.922;6.256;2022-09-28T00:29:43;8.73;;;6.72;;
12467;SDS011;57850;52.922;6.256;2022-09-28T00:32:11;8.73;;;5.90;;
12467;SDS011;57850;52.922;6.256;2022-09-28T00:34:39;7.10;;;6.10;;
12467;SDS011;57850;52.922;6.256;2022-09-28T00:37:07;9.27;;;6.72;;
12467;SDS011;57850;52.922;6.256;2022-09-28T00:39:35;10.30;;;6.75;;
12467;SDS011;57850;52.922;6.256;2022-09-28T00:42:08;7.45;;;6.45;;
12467;SDS011;57850;52.922;6.256;2022-09-28T00:44:39;8.75;;;6.45;;
12467;SDS011;57850;52.922;6.256;2022-09-28T00:47:16;8.18;;;6.38;;
12467;SDS011;57850;52.922;6.256;2022-09-28T00:50:10;9.15;;;7.07;;
12467;SDS011;57850;52.922;6.256;2022-09-28T00:52:44;10.43;;;7.20;;
12467;SDS011;57850;52.922;6.256;2022-09-28T00:55:15;10.35;;;8.20;;
12467;SDS011;57850;52.922;6.256;2022-09-28T00:57:47;9.63;;;7.03;;
12467;SDS011;57850;52.922;6.256;2022-09-28T01:00:16;10.23;;;7.90;;
12467;SDS011;57850;52.922;6.256;2022-09-28T01:02:44;11.18;;;8.35;;
12467;SDS011;57850;52.922;6.256;2022-09-28T01:05:12;11.85;;;8.48;;
12467;SDS011;57850;52.922;6.256;2022-09-28T01:07:43;14.10;;;8.88;;
12467;SDS011;57850;52.922;6.256;2022-09-28T01:10:10;11.73;;;8.93;;
12467;SDS011;57850;52.922;6.256;2022-09-28T01:12:37;10.18;;;8.57;;
12467;SDS011;57850;52.922;6.256;2022-09-28T01:15:06;15.05;;;10.07;;
12467;SDS011;57850;52.922;6.256;2022-09-28T01:17:36;14.50;;;10.30;;
12467;SDS011;57850;52.922;6.256;2022-09-28T01:20:22;12.45;;;9.40;;
12467;SDS011;57850;52.922;6.256;2022-09-28T01:29:08;13.05;;;9.15;;
12467;SDS011;57850;52.922;6.256;2022-09-28T01:31:42;12.23;;;8.88;;
12467;SDS011;57850;52.922;6.256;2022-09-28T01:34:14;49.95;;;9.57;;
12467;SDS011;57850;52.922;6.256;2022-09-28T01:36:47;41.42;;;8.98;;
12467;SDS011;57850;52.922;6.256;2022-09-28T01:39:17;11.50;;;8.88;;
12467;SDS011;57850;52.922;6.256;2022-09-28T01:41:49;31.45;;;9.30;;
12467;SDS011;57850;52.922;6.256;2022-09-28T01:44:18;16.35;;;9.57;;
12467;SDS011;57850;52.922;6.256;2022-09-28T01:46:48;100.15;;;10.50;;
12467;SDS011;57850;52.922;6.256;2022-09-28T01:49:17;74.45;;;9.00;;
12467;SDS011;57850;52.922;6.256;2022-09-28T01:51:47;57.95;;;9.82;;
12467;SDS011;57850;52.922;6.256;2022-09-28T01:54:19;36.95;;;10.27;;
12467;SDS011;57850;52.922;6.256;2022-09-28T01:56:51;9.77;;;8.77;;
12467;SDS011;57850;52.922;6.256;2022-09-28T01:59:22;45.22;;;9.85;;
12467;SDS011;57850;52.922;6.256;2022-09-28T02:01:54;21.48;;;9.23;;
12467;SDS011;57850;52.922;6.256;2022-09-28T02:04:26;22.38;;;9.40;;
12467;SDS011;57850;52.922;6.256;2022-09-28T02:06:57;37.28;;;9.57;;
12467;SDS011;57850;52.922;6.256;2022-09-28T02:09:31;10.02;;;8.18;;
12467;SDS011;57850;52.922;6.256;2022-09-28T02:12:04;59.65;;;9.85;;
12467;SDS011;57850;52.922;6.256;2022-09-28T02:14:36;25.35;;;9.07;;
12467;SDS011;57850;52.922;6.256;2022-09-28T02:17:05;14.23;;;8.90;;
12467;SDS011;57850;52.922;6.256;2022-09-28T02:19:34;14.30;;;9.25;;
12467;SDS011;57850;52.922;6.256;2022-09-28T02:22:02;35.45;;;9.77;;
12467;SDS011;57850;52.922;6.256;2022-09-28T02:24:39;31.98;;;9.35;;
12467;SDS011;57850;52.922;6.256;2022-09-28T02:27:14;18.73;;;9.45;;
12467;SDS011;57850;52.922;6.256;2022-09-28T02:29:46;22.27;;;9.02;;
12467;SDS011;57850;52.922;6.256;2022-09-28T02:32:15;13.60;;;9.00;;
12467;SDS011;57850;52.922;6.256;2022-09-28T02:34:45;15.18;;;8.98;;
12467;SDS011;57850;52.922;6.256;2022-09-28T02:37:12;35.65;;;8.60;;
12467;SDS011;57850;52.922;6.256;2022-09-28T02:39:38;23.08;;;8.60;;
12467;SDS011;57850;52.922;6.256;2022-09-28T02:42:06;68.85;;;9.80;;
12467;SDS011;57850;52.922;6.256;2022-09-28T02:44:45;35.13;;;8.88;;
12467;SDS011;57850;52.922;6.256;2022-09-28T02:47:24;96.10;;;10.13;;
12467;SDS011;57850;52.922;6.256;2022-09-28T02:50:02;29.38;;;8.93;;
12467;SDS011;57850;52.922;6.256;2022-09-28T02:52:43;28.17;;;9.02;;
12467;SDS011;57850;52.922;6.256;2022-09-28T02:55:28;11.40;;;8.35;;
12467;SDS011;57850;52.922;6.256;2022-09-28T02:58:16;21.42;;;7.85;;
12467;SDS011;57850;52.922;6.256;2022-09-28T03:00:53;9.43;;;7.97;;
12467;SDS011;57850;52.922;6.256;2022-09-28T03:03:28;24.30;;;8.10;;
12467;SDS011;57850;52.922;6.256;2022-09-28T03:06:03;11.30;;;7.82;;
12467;SDS011;57850;52.922;6.256;2022-09-28T03:08:36;9.73;;;7.82;;
12467;SDS011;57850;52.922;6.256;2022-09-28T03:11:08;9.65;;;7.78;;
12467;SDS011;57850;52.922;6.256;2022-09-28T03:13:39;8.98;;;7.90;;
12467;SDS011;57850;52.922;6.256;2022-09-28T03:16:10;15.43;;;8.27;;
12467;SDS011;57850;52.922;6.256;2022-09-28T03:18:38;11.75;;;8.38;;
12467;SDS011;57850;52.922;6.256;2022-09-28T03:21:05;22.90;;;7.70;;
12467;SDS011;57850;52.922;6.256;2022-09-28T03:23:32;12.57;;;7.22;;
12467;SDS011;57850;52.922;6.256;2022-09-28T03:25:58;15.35;;;8.30;;
12467;SDS011;57850;52.922;6.256;2022-09-28T03:28:25;12.88;;;8.50;;
12467;SDS011;57850;52.922;6.256;2022-09-28T03:30:52;22.50;;;8.77;;
12467;SDS011;57850;52.922;6.256;2022-09-28T03:33:20;11.73;;;8.48;;
12467;SDS011;57850;52.922;6.256;2022-09-28T03:35:48;13.80;;;8.43;;
12467;SDS011;57850;52.922;6.256;2022-09-28T03:38:16;16.55;;;8.02;;
12467;SDS011;57850;52.922;6.256;2022-09-28T03:40:43;12.13;;;8.85;;
12467;SDS011;57850;52.922;6.256;2022-09-28T03:43:09;9.50;;;8.60;;
12467;SDS011;57850;52.922;6.256;2022-09-28T03:45:36;22.90;;;9.30;;
12467;SDS011;57850;52.922;6.256;2022-09-28T03:48:03;77.45;;;10.05;;
12467;SDS011;57850;52.922;6.256;2022-09-28T03:50:31;17.10;;;9.57;;
12467;SDS011;57850;52.922;6.256;2022-09-28T03:53:00;31.23;;;10.10;;
12467;SDS011;57850;52.922;6.256;2022-09-28T03:55:28;16.35;;;9.85;;
12467;SDS011;57850;52.922;6.256;2022-09-28T03:57:54;22.60;;;9.85;;
12467;SDS011;57850;52.922;6.256;2022-09-28T04:00:21;13.73;;;9.90;;
12467;SDS011;57850;52.922;6.256;2022-09-28T04:02:48;24.67;;;10.20;;
12467;SDS011;57850;52.922;6.256;2022-09-28T04:05:14;28.30;;;10.93;;
12467;SDS011;57850;52.922;6.256;2022-09-28T04:07:42;47.38;;;11.30;;
12467;SDS011;57850;52.922;6.256;2022-09-28T04:10:09;27.75;;;10.73;;
12467;SDS011;57850;52.922;6.256;2022-09-28T04:12:36;24.75;;;11.18;;
12467;SDS011;57850;52.922;6.256;2022-09-28T04:15:04;55.25;;;11.93;;
12467;SDS011;57850;52.922;6.256;2022-09-28T04:17:31;30.10;;;10.70;;
12467;SDS011;57850;52.922;6.256;2022-09-28T04:19:58;24.02;;;11.32;;
12467;SDS011;57850;52.922;6.256;2022-09-28T04:22:26;19.85;;;11.27;;
12467;SDS011;57850;52.922;6.256;2022-09-28T04:24:54;72.63;;;12.27;;
12467;SDS011;57850;52.922;6.256;2022-09-28T04:27:21;54.25;;;12.98;;
12467;SDS011;57850;52.922;6.256;2022-09-28T04:30:05;20.75;;;12.07;;
12467;SDS011;57850;52.922;6.256;2022-09-28T04:32:33;32.20;;;11.68;;
12467;SDS011;57850;52.922;6.256;2022-09-28T04:35:01;14.00;;;12.05;;
12467;SDS011;57850;52.922;6.256;2022-09-28T04:37:27;15.73;;;11.77;;
12467;SDS011;57850;52.922;6.256;2022-09-28T04:39:56;15.38;;;11.85;;
12467;SDS011;57850;52.922;6.256;2022-09-28T04:42:23;21.25;;;12.27;;
12467;SDS011;57850;52.922;6.256;2022-09-28T04:44:53;18.67;;;12.10;;
12467;SDS011;57850;52.922;6.256;2022-09-28T04:47:22;15.02;;;12.73;;
12467;SDS011;57850;52.922;6.256;2022-09-28T04:49:49;15.50;;;12.80;;
12467;SDS011;57850;52.922;6.256;2022-09-28T04:52:16;15.80;;;11.57;;
12467;SDS011;57850;52.922;6.256;2022-09-28T04:54:43;22.33;;;12.57;;
12467;SDS011;57850;52.922;6.256;2022-09-28T04:57:11;15.07;;;10.95;;
12467;SDS011;57850;52.922;6.256;2022-09-28T04:59:38;14.23;;;11.30;;
12467;SDS011;57850;52.922;6.256;2022-09-28T05:02:04;13.35;;;11.52;;
12467;SDS011;57850;52.922;6.256;2022-09-28T05:04:31;16.33;;;11.48;;
12467;SDS011;57850;52.922;6.256;2022-09-28T05:07:01;15.20;;;11.65;;
12467;SDS011;57850;52.922;6.256;2022-09-28T05:09:28;16.10;;;11.95;;
12467;SDS011;57850;52.922;6.256;2022-09-28T05:11:55;19.70;;;13.25;;
12467;SDS011;57850;52.922;6.256;2022-09-28T05:14:26;17.02;;;12.27;;
12467;SDS011;57850;52.922;6.256;2022-09-28T05:16:53;21.55;;;12.65;;
12467;SDS011;57850;52.922;6.256;2022-09-28T05:19:19;20.60;;;13.35;;
12467;SDS011;57850;52.922;6.256;2022-09-28T05:21:46;15.68;;;12.93;;
12467;SDS011;57850;52.922;6.256;2022-09-28T05:24:13;18.50;;;13.27;;
12467;SDS011;57850;52.922;6.256;2022-09-28T05:26:40;15.85;;;12.43;;
12467;SDS011;57850;52.922;6.256;2022-09-28T05:29:06;18.52;;;13.25;;
12467;SDS011;57850;52.922;6.256;2022-09-28T05:31:34;18.20;;;12.45;;
12467;SDS011;57850;52.922;6.256;2022-09-28T05:34:01;16.52;;;12.88;;
12467;SDS011;57850;52.922;6.256;2022-09-28T05:36:28;16.02;;;12.40;;
12467;SDS011;57850;52.922;6.256;2022-09-28T05:38:56;16.55;;;12.80;;
12467;SDS011;57850;52.922;6.256;2022-09-28T05:41:23;16.40;;;12.77;;
12467;SDS011;57850;52.922;6.256;2022-09-28T05:43:49;19.77;;;13.45;;
12467;SDS011;57850;52.922;6.256;2022-09-28T05:46:17;16.40;;;12.95;;
12467;SDS011;57850;52.922;6.256;2022-09-28T05:48:47;19.55;;;13.02;;
12467;SDS011;57850;52.922;6.256;2022-09-28T05:51:13;20.83;;;14.05;;
12467;SDS011;57850;52.922;6.256;2022-09-28T05:53:40;19.45;;;14.43;;
12467;SDS011;57850;52.922;6.256;2022-09-28T05:56:07;25.35;;;14.52;;
12467;SDS011;57850;52.922;6.256;2022-09-28T05:58:33;19.50;;;14.93;;
12467;SDS011;57850;52.922;6.256;2022-09-28T06:01:00;18.35;;;13.65;;
12467;SDS011;57850;52.922;6.256;2022-09-28T06:03:27;24.02;;;14.70;;
12467;SDS011;57850;52.922;6.256;2022-09-28T06:05:55;24.77;;;15.15;;
12467;SDS011;57850;52.922;6.256;2022-09-28T06:08:22;23.83;;;15.32;;
12467;SDS011;57850;52.922;6.256;2022-09-28T06:10:48;23.27;;;14.73;;
12467;SDS011;57850;52.922;6.256;2022-09-28T06:13:18;21.42;;;14.30;;
12467;SDS011;57850;52.922;6.256;2022-09-28T06:15:45;21.85;;;14.70;;
12467;SDS011;57850;52.922;6.256;2022-09-28T06:18:13;19.48;;;14.40;;
12467;SDS011;57850;52.922;6.256;2022-09-28T06:20:40;20.55;;;14.70;;
12467;SDS011;57850;52.922;6.256;2022-09-28T06:23:11;24.48;;;15.73;;
12467;SDS011;57850;52.922;6.256;2022-09-28T06:25:38;18.90;;;14.35;;
12467;SDS011;57850;52.922;6.256;2022-09-28T06:28:07;20.55;;;15.07;;
12467;SDS011;57850;52.922;6.256;2022-09-28T06:30:36;20.42;;;15.55;;
12467;SDS011;57850;52.922;6.256;2022-09-28T06:33:04;27.58;;;21.48;;
12467;SDS011;57850;52.922;6.256;2022-09-28T06:35:32;20.60;;;14.82;;
12467;SDS011;57850;52.922;6.256;2022-09-28T06:38:00;21.75;;;16.35;;
12467;SDS011;57850;52.922;6.256;2022-09-28T06:40:28;20.27;;;13.82;;
12467;SDS011;57850;52.922;6.256;2022-09-28T06:42:55;20.58;;;14.07;;
12467;SDS011;57850;52.922;6.256;2022-09-28T06:45:23;21.67;;;15.52;;
12467;SDS011;57850;52.922;6.256;2022-09-28T06:47:54;20.55;;;14.63;;
12467;SDS011;57850;52.922;6.256;2022-09-28T06:50:23;19.10;;;13.57;;
12467;SDS011;57850;52.922;6.256;2022-09-28T06:52:51;19.33;;;13.50;;
12467;SDS011;57850;52.922;6.256;2022-09-28T06:55:18;19.77;;;14.20;;
12467;SDS011;57850;52.922;6.256;2022-09-28T06:57:47;22.08;;;15.20;;
12467;SDS011;57850;52.922;6.256;2022-09-28T07:00:23;18.48;;;13.48;;
12467;SDS011;57850;52.922;6.256;2022-09-28T07:02:49;20.13;;;14.27;;
12467;SDS011;57850;52.922;6.256;2022-09-28T07:05:16;19.70;;;14.23;;
12467;SDS011;57850;52.922;6.256;2022-09-28T07:07:50;23.85;;;14.73;;
12467;SDS011;57850;52.922;6.256;2022-09-28T07:10:19;20.95;;;14.45;;
12467;SDS011;57850;52.922;6.256;2022-09-28T07:12:47;20.40;;;14.30;;
12467;SDS011;57850;52.922;6.256;2022-09-28T07:15:15;18.50;;;13.13;;
12467;SDS011;57850;52.922;6.256;2022-09-28T07:17:41;19.13;;;12.63;;
12467;SDS011;57850;52.922;6.256;2022-09-28T07:20:08;18.98;;;12.98;;
12467;SDS011;57850;52.922;6.256;2022-09-28T07:22:35;17.15;;;12.30;;
12467;SDS011;57850;52.922;6.256;2022-09-28T07:25:03;19.23;;;12.73;;
12467;SDS011;57850;52.922;6.256;2022-09-28T07:27:30;18.75;;;12.88;;
12467;SDS011;57850;52.922;6.256;2022-09-28T07:29:59;18.55;;;11.48;;
12467;SDS011;57850;52.922;6.256;2022-09-28T07:32:26;17.35;;;10.52;;
12467;SDS011;57850;52.922;6.256;2022-09-28T07:34:53;15.93;;;11.13;;
12467;SDS011;57850;52.922;6.256;2022-09-28T07:37:20;14.98;;;10.55;;
12467;SDS011;57850;52.922;6.256;2022-09-28T07:39:50;17.42;;;11.55;;
12467;SDS011;57850;52.922;6.256;2022-09-28T07:42:35;16.30;;;11.73;;
12467;SDS011;57850;52.922;6.256;2022-09-28T07:45:04;15.82;;;11.27;;
12467;SDS011;57850;52.922;6.256;2022-09-28T07:47:31;14.70;;;10.90;;
12467;SDS011;57850;52.922;6.256;2022-09-28T07:49:57;14.48;;;10.48;;
12467;SDS011;57850;52.922;6.256;2022-09-28T07:52:24;16.65;;;11.75;;
12467;SDS011;57850;52.922;6.256;2022-09-28T07:54:53;22.23;;;12.57;;
12467;SDS011;57850;52.922;6.256;2022-09-28T07:57:20;19.88;;;11.48;;
12467;SDS011;57850;52.922;6.256;2022-09-28T07:59:47;20.10;;;11.68;;
12467;SDS011;57850;52.922;6.256;2022-09-28T08:02:19;15.35;;;9.70;;
12467;SDS011;57850;52.922;6.256;2022-09-28T08:04:46;14.60;;;10.45;;
12467;SDS011;57850;52.922;6.256;2022-09-28T08:07:14;20.02;;;11.57;;
12467;SDS011;57850;52.922;6.256;2022-09-28T08:09:41;15.88;;;10.35;;
12467;SDS011;57850;52.922;6.256;2022-09-28T08:12:08;15.98;;;10.18;;
12467;SDS011;57850;52.922;6.256;2022-09-28T08:14:35;12.77;;;9.15;;
12467;SDS011;57850;52.922;6.256;2022-09-28T08:17:02;15.48;;;10.02;;
12467;SDS011;57850;52.922;6.256;2022-09-28T08:19:31;14.55;;;9.70;;
12467;SDS011;57850;52.922;6.256;2022-09-28T08:22:12;15.00;;;10.30;;
12467;SDS011;57850;52.922;6.256;2022-09-28T08:24:39;13.90;;;8.65;;
12467;SDS011;57850;52.922;6.256;2022-09-28T08:27:05;14.52;;;8.57;;
12467;SDS011;57850;52.922;6.256;2022-09-28T08:29:32;12.50;;;7.68;;
12467;SDS011;57850;52.922;6.256;2022-09-28T08:31:59;7.68;;;6.32;;
12467;SDS011;57850;52.922;6.256;2022-09-28T08:34:26;9.80;;;7.72;;
12467;SDS011;57850;52.922;6.256;2022-09-28T08:36:56;7.72;;;6.72;;
12467;SDS011;57850;52.922;6.256;2022-09-28T08:39:26;6.78;;;6.07;;
12467;SDS011;57850;52.922;6.256;2022-09-28T08:41:54;8.63;;;7.45;;
12467;SDS011;57850;52.922;6.256;2022-09-28T08:44:30;8.82;;;7.88;;
12467;SDS011;57850;52.922;6.256;2022-09-28T08:47:04;9.38;;;7.43;;
12467;SDS011;57850;52.922;6.256;2022-09-28T08:49:34;8.10;;;7.03;;
12467;SDS011;57850;52.922;6.256;2022-09-28T08:52:06;6.68;;;5.53;;
12467;SDS011;57850;52.922;6.256;2022-09-28T08:54:39;6.53;;;5.82;;
12467;SDS011;57850;52.922;6.256;2022-09-28T08:57:13;6.82;;;5.03;;
12467;SDS011;57850;52.922;6.256;2022-09-28T08:59:45;5.55;;;4.93;;
12467;SDS011;57850;52.922;6.256;2022-09-28T09:02:17;7.43;;;5.60;;
12467;SDS011;57850;52.922;6.256;2022-09-28T09:04:49;8.18;;;6.00;;
12467;SDS011;57850;52.922;6.256;2022-09-28T09:07:25;9.05;;;5.43;;
12467;SDS011;57850;52.922;6.256;2022-09-28T09:10:12;6.38;;;3.78;;
12467;SDS011;57850;52.922;6.256;2022-09-28T09:12:55;4.93;;;3.83;;
12467;SDS011;57850;52.922;6.256;2022-09-28T09:15:32;5.72;;;3.70;;
12467;SDS011;57850;52.922;6.256;2022-09-28T09:18:11;4.07;;;3.63;;
12467;SDS011;57850;52.922;6.256;2022-09-28T09:20:49;4.68;;;3.78;;
12467;SDS011;57850;52.922;6.256;2022-09-28T09:23:25;5.03;;;3.67;;
12467;SDS011;57850;52.922;6.256;2022-09-28T09:26:08;8.27;;;3.33;;
12467;SDS011;57850;52.922;6.256;2022-09-28T09:28:49;3.65;;;3.20;;
12467;SDS011;57850;52.922;6.256;2022-09-28T09:31:35;4.68;;;3.40;;
12467;SDS011;57850;52.922;6.256;2022-09-28T09:34:20;3.60;;;3.30;;
12467;SDS011;57850;52.922;6.256;2022-09-28T09:37:20;10.02;;;5.63;;
12467;SDS011;57850;52.922;6.256;2022-09-28T09:40:07;4.38;;;3.20;;
12467;SDS011;57850;52.922;6.256;2022-09-28T09:42:59;3.08;;;2.78;;
12467;SDS011;57850;52.922;6.256;2022-09-28T09:45:35;3.83;;;2.65;;
12467;SDS011;57850;52.922;6.256;2022-09-28T09:48:20;4.30;;;2.28;;
12467;SDS011;57850;52.922;6.256;2022-09-28T09:50:51;3.17;;;2.00;;
12467;SDS011;57850;52.922;6.256;2022-09-28T09:53:23;2.90;;;2.05;;
12467;SDS011;57850;52.922;6.256;2022-09-28T09:55:55;3.25;;;1.60;;
12467;SDS011;57850;52.922;6.256;2022-09-28T09:58:25;3.05;;;1.60;;
12467;SDS011;57850;52.922;6.256;2022-09-28T10:00:57;1.83;;;1.67;;
12467;SDS011;57850;52.922;6.256;2022-09-28T10:03:31;4.55;;;1.70;;
12467;SDS011;57850;52.922;6.256;2022-09-28T10:06:00;2.22;;;1.55;;
12467;SDS011;57850;52.922;6.256;2022-09-28T10:08:32;2.15;;;1.20;;
12467;SDS011;57850;52.922;6.256;2022-09-28T10:11:06;2.10;;;1.30;;
12467;SDS011;57850;52.922;6.256;2022-09-28T10:13:37;3.00;;;1.40;;
12467;SDS011;57850;52.922;6.256;2022-09-28T10:16:04;2.50;;;1.48;;
12467;SDS011;57850;52.922;6.256;2022-09-28T10:18:32;2.60;;;1.67;;
12467;SDS011;57850;52.922;6.256;2022-09-28T10:20:59;2.50;;;1.40;;
12467;SDS011;57850;52.922;6.256;2022-09-28T10:23:27;2.22;;;1.63;;
12467;SDS011;57850;52.922;6.256;2022-09-28T10:25:59;3.78;;;2.20;;
12467;SDS011;57850;52.922;6.256;2022-09-28T10:28:32;1.38;;;1.27;;
12467;SDS011;57850;52.922;6.256;2022-09-28T10:34:00;5.63;;;1.67;;
12467;SDS011;57850;52.922;6.256;2022-09-28T10:36:26;5.68;;;1.42;;
12467;SDS011;57850;52.922;6.256;2022-09-28T10:38:54;5.03;;;1.83;;
12467;SDS011;57850;52.922;6.256;2022-09-28T10:41:24;3.10;;;1.75;;
12467;SDS011;57850;52.922;6.256;2022-09-28T10:43:53;3.08;;;1.60;;
12467;SDS011;57850;52.922;6.256;2022-09-28T10:46:30;2.17;;;1.50;;
12467;SDS011;57850;52.922;6.256;2022-09-28T10:48:58;1.40;;;1.30;;
12467;SDS011;57850;52.922;6.256;2022-09-28T10:51:40;3.55;;;1.40;;
12467;SDS011;57850;52.922;6.256;2022-09-28T10:54:12;2.13;;;1.20;;
12467;SDS011;57850;52.922;6.256;2022-09-28T10:56:40;5.28;;;1.10;;
12467;SDS011;57850;52.922;6.256;2022-09-28T11:02:01;1.00;;;1.00;;
12467;SDS011;57850;52.922;6.256;2022-09-28T11:04:37;3.70;;;1.30;;
12467;SDS011;57850;52.922;6.256;2022-09-28T11:07:12;4.32;;;3.17;;
12467;SDS011;57850;52.922;6.256;2022-09-28T11:09:45;20.45;;;18.60;;
12467;SDS011;57850;52.922;6.256;2022-09-28T11:12:14;18.80;;;17.08;;
12467;SDS011;57850;52.922;6.256;2022-09-28T11:14:45;3.13;;;2.70;;
12467;SDS011;57850;52.922;6.256;2022-09-28T11:17:17;2.47;;;1.88;;
12467;SDS011;57850;52.922;6.256;2022-09-28T11:19:51;1.63;;;1.20;;
12467;SDS011;57850;52.922;6.256;2022-09-28T11:22:20;0.95;;;0.95;;
12467;SDS011;57850;52.922;6.256;2022-09-28T11:24:49;1.95;;;1.00;;
12467;SDS011;57850;52.922;6.256;2022-09-28T11:27:19;1.00;;;0.80;;
12467;SDS011;57850;52.922;6.256;2022-09-28T11:29:53;1.42;;;1.10;;
12467;SDS011;57850;52.922;6.256;2022-09-28T11:32:23;1.45;;;0.90;;
12467;SDS011;57850;52.922;6.256;2022-09-28T11:34:54;2.92;;;0.90;;
12467;SDS011;57850;52.922;6.256;2022-09-28T11:37:33;3.17;;;1.10;;
12467;SDS011;57850;52.922;6.256;2022-09-28T11:40:11;1.33;;;1.08;;
12467;SDS011;57850;52.922;6.256;2022-09-28T11:42:49;1.42;;;1.00;;
12467;SDS011;57850;52.922;6.256;2022-09-28T11:45:31;2.05;;;0.93;;
12467;SDS011;57850;52.922;6.256;2022-09-28T11:48:06;4.45;;;1.45;;
12467;SDS011;57850;52.922;6.256;2022-09-28T11:50:41;3.03;;;1.20;;
12467;SDS011;57850;52.922;6.256;2022-09-28T11:53:18;1.45;;;1.15;;
12467;SDS011;57850;52.922;6.256;2022-09-28T11:55:50;1.35;;;1.20;;
12467;SDS011;57850;52.922;6.256;2022-09-28T11:58:24;1.60;;;1.00;;
12467;SDS011;57850;52.922;6.256;2022-09-28T12:00:58;1.50;;;1.40;;
12467;SDS011;57850;52.922;6.256;2022-09-28T12:03:29;1.30;;;1.20;;
12467;SDS011;57850;52.922;6.256;2022-09-28T12:06:02;1.10;;;1.00;;
12467;SDS011;57850;52.922;6.256;2022-09-28T12:08:33;1.67;;;1.27;;
12467;SDS011;57850;52.922;6.256;2022-09-28T12:11:03;1.60;;;1.20;;
12467;SDS011;57850;52.922;6.256;2022-09-28T12:13:34;1.55;;;1.25;;
12467;SDS011;57850;52.922;6.256;2022-09-28T12:16:07;1.55;;;1.02;;
12467;SDS011;57850;52.922;6.256;2022-09-28T12:18:40;1.40;;;1.30;;
12467;SDS011;57850;52.922;6.256;2022-09-28T12:21:17;1.30;;;1.20;;
12467;SDS011;57850;52.922;6.256;2022-09-28T12:23:54;1.13;;;1.02;;
12467;SDS011;57850;52.922;6.256;2022-09-28T12:26:30;1.13;;;1.13;;
12467;SDS011;57850;52.922;6.256;2022-09-28T12:29:01;1.35;;;1.25;;
12467;SDS011;57850;52.922;6.256;2022-09-28T12:31:33;1.63;;;1.00;;
12467;SDS011;57850;52.922;6.256;2022-09-28T12:34:03;25.48;;;23.33;;
12467;SDS011;57850;52.922;6.256;2022-09-28T12:36:34;1.70;;;1.10;;
12467;SDS011;57850;52.922;6.256;2022-09-28T12:42:11;1.10;;;1.00;;
12467;SDS011;57850;52.922;6.256;2022-09-28T12:44:47;1.02;;;0.90;;
12467;SDS011;57850;52.922;6.256;2022-09-28T12:47:34;1.10;;;1.00;;
12467;SDS011;57850;52.922;6.256;2022-09-28T12:50:14;1.65;;;1.17;;
12467;SDS011;57850;52.922;6.256;2022-09-28T12:52:51;2.55;;;1.38;;
12467;SDS011;57850;52.922;6.256;2022-09-28T12:55:36;1.85;;;0.90;;
12467;SDS011;57850;52.922;6.256;2022-09-28T12:58:16;1.80;;;1.02;;
12467;SDS011;57850;52.922;6.256;2022-09-28T13:00:54;1.88;;;1.23;;
12467;SDS011;57850;52.922;6.256;2022-09-28T13:03:40;3.40;;;1.05;;
12467;SDS011;57850;52.922;6.256;2022-09-28T13:06:32;1.90;;;1.10;;
12467;SDS011;57850;52.922;6.256;2022-09-28T13:09:13;2.13;;;0.60;;
12467;SDS011;57850;52.922;6.256;2022-09-28T13:11:48;1.65;;;1.30;;
12467;SDS011;57850;52.922;6.256;2022-09-28T13:14:38;1.17;;;0.80;;
12467;SDS011;57850;52.922;6.256;2022-09-28T13:17:27;1.33;;;1.08;;
12467;SDS011;57850;52.922;6.256;2022-09-28T13:20:10;1.30;;;1.00;;
12467;SDS011;57850;52.922;6.256;2022-09-28T13:22:48;1.67;;;0.80;;
12467;SDS011;57850;52.922;6.256;2022-09-28T13:25:21;2.13;;;1.10;;
12467;SDS011;57850;52.922;6.256;2022-09-28T13:27:53;0.98;;;0.90;;
12467;SDS011;57850;52.922;6.256;2022-09-28T13:30:23;1.50;;;1.30;;
12467;SDS011;57850;52.922;6.256;2022-09-28T13:32:50;2.05;;;1.65;;
12467;SDS011;57850;52.922;6.256;2022-09-28T13:35:22;2.53;;;1.20;;
12467;SDS011;57850;52.922;6.256;2022-09-28T13:37:55;1.38;;;0.98;;
12467;SDS011;57850;52.922;6.256;2022-09-28T13:44:02;1.30;;;1.20;;
12467;SDS011;57850;52.922;6.256;2022-09-28T13:46:41;0.88;;;0.82;;
12467;SDS011;57850;52.922;6.256;2022-09-28T13:49:16;1.00;;;0.90;;
12467;SDS011;57850;52.922;6.256;2022-09-28T13:51:52;2.00;;;1.10;;
12467;SDS011;57850;52.922;6.256;2022-09-28T13:54:38;2.22;;;0.80;;
12467;SDS011;57850;52.922;6.256;2022-09-28T13:57:20;4.07;;;1.00;;
12467;SDS011;57850;52.922;6.256;2022-09-28T13:59:53;3.47;;;1.00;;
12467;SDS011;57850;52.922;6.256;2022-09-28T14:02:29;1.10;;;0.80;;
12467;SDS011;57850;52.922;6.256;2022-09-28T14:05:02;1.65;;;1.00;;
12467;SDS011;57850;52.922;6.256;2022-09-28T14:10:22;0.77;;;0.70;;
12467;SDS011;57850;52.922;6.256;2022-09-28T14:13:09;1.10;;;1.00;;
12467;SDS011;57850;52.922;6.256;2022-09-28T14:15:38;1.10;;;0.80;;
12467;SDS011;57850;52.922;6.256;2022-09-28T14:18:13;1.02;;;0.93;;
12467;SDS011;57850;52.922;6.256;2022-09-28T14:20:49;1.70;;;1.23;;
12467;SDS011;57850;52.922;6.256;2022-09-28T14:23:47;4.40;;;1.55;;
12467;SDS011;57850;52.922;6.256;2022-09-28T14:29:26;2.38;;;1.13;;
12467;SDS011;57850;52.922;6.256;2022-09-28T14:31:55;2.47;;;1.10;;
12467;SDS011;57850;52.922;6.256;2022-09-28T14:34:30;1.02;;;0.93;;
12467;SDS011;57850;52.922;6.256;2022-09-28T14:37:01;2.53;;;0.93;;
12467;SDS011;57850;52.922;6.256;2022-09-28T14:39:50;0.82;;;0.80;;
12467;SDS011;57850;52.922;6.256;2022-09-28T14:42:34;1.55;;;1.02;;
12467;SDS011;57850;52.922;6.256;2022-09-28T14:48:11;2.25;;;1.27;;
12467;SDS011;57850;52.922;6.256;2022-09-28T14:50:40;1.73;;;0.98;;
12467;SDS011;57850;52.922;6.256;2022-09-28T14:53:09;1.60;;;1.00;;
12467;SDS011;57850;52.922;6.256;2022-09-28T14:55:40;2.17;;;1.30;;
12467;SDS011;57850;52.922;6.256;2022-09-28T14:58:15;1.40;;;1.00;;
12467;SDS011;57850;52.922;6.256;2022-09-28T15:00:47;2.05;;;1.00;;
12467;SDS011;57850;52.922;6.256;2022-09-28T15:03:19;3.25;;;1.80;;
12467;SDS011;57850;52.922;6.256;2022-09-28T15:05:47;4.72;;;1.00;;
12467;SDS011;57850;52.922;6.256;2022-09-28T15:08:17;0.85;;;0.80;;
12467;SDS011;57850;52.922;6.256;2022-09-28T15:10:48;1.00;;;0.80;;
12467;SDS011;57850;52.922;6.256;2022-09-28T15:13:17;0.88;;;0.80;;
12467;SDS011;57850;52.922;6.256;2022-09-28T15:15:49;1.40;;;0.80;;
12467;SDS011;57850;52.922;6.256;2022-09-28T15:21:21;23.35;;;12.82;;
12467;SDS011;57850;52.922;6.256;2022-09-28T15:23:49;7.35;;;4.32;;
12467;SDS011;57850;52.922;6.256;2022-09-28T15:26:21;6.30;;;5.30;;
12467;SDS011;57850;52.922;6.256;2022-09-28T15:28:51;3.38;;;2.33;;
12467;SDS011;57850;52.922;6.256;2022-09-28T15:31:20;2.35;;;1.40;;